Time;durP1;ratioP1;P1;durP2;ratioP2;P2;SDS_P1;SDS_P2;PMS_P1;PMS_P2;Temp;Humidity;BMP_temperature;BMP_pressure;BME280_temperature;BME280_humidity;BME280_pressure;Samples;Min_cycle;Max_cycle;Signal;HPM_P1;HPM_P2
2022/04/06 00:01:09;;;;;;;0.67;0.67;;;9.40;99.90;;;;;;5073596;28;20416;-68
2022/04/06 00:03:56;;;;;;;0.50;0.50;;;9.40;99.90;;;;;;5072952;28;20424;-68
2022/04/06 00:06:43;;;;;;;0.40;0.40;;;9.40;99.90;;;;;;5072841;28;20455;-68
2022/04/06 00:09:31;;;;;;;0.40;0.40;;;9.40;99.90;;;;;;5074536;28;20447;-68
2022/04/06 00:12:17;;;;;;;2.43;2.23;;;9.40;99.90;;;;;;5072631;28;20427;-68
2022/04/06 00:15:09;;;;;;;0.40;0.40;;;9.40;99.90;;;;;;5072749;28;20423;-68
2022/04/06 00:17:56;;;;;;;1.10;1.10;;;9.50;99.90;;;;;;5074356;28;20427;-68
2022/04/06 00:20:43;;;;;;;0.87;0.87;;;9.50;99.90;;;;;;5074576;28;20448;-68
2022/04/06 00:23:30;;;;;;;4.50;2.77;;;9.50;99.90;;;;;;5074329;28;20505;-68
2022/04/06 00:26:17;;;;;;;0.40;0.40;;;9.50;99.90;;;;;;5072710;28;20493;-68
2022/04/06 00:29:04;;;;;;;2.50;1.60;;;9.50;99.90;;;;;;5073137;28;20530;-68
2022/04/06 00:31:53;;;;;;;0.60;0.60;;;9.40;99.90;;;;;;5072203;28;20442;-68
2022/04/06 00:37:44;;;;;;;0.60;0.60;;;9.40;99.90;;;;;;5072220;28;20415;-68
2022/04/06 00:40:33;;;;;;;0.80;0.77;;;9.40;99.90;;;;;;5073077;28;20446;-68
2022/04/06 00:43:20;;;;;;;0.40;0.40;;;9.40;99.90;;;;;;5072429;28;20505;-68
2022/04/06 00:46:07;;;;;;;0.50;0.50;;;9.40;99.90;;;;;;5073321;28;20447;-67
2022/04/06 00:48:55;;;;;;;1.67;1.57;;;9.40;99.90;;;;;;5076948;28;20440;-68
2022/04/06 00:51:45;;;;;;;1.70;1.40;;;9.40;99.90;;;;;;5075718;28;20419;-68
2022/04/06 00:54:33;;;;;;;0.87;0.80;;;9.40;99.90;;;;;;5075407;28;20812;-68
2022/04/06 00:57:20;;;;;;;0.40;0.40;;;9.40;99.90;;;;;;5076386;28;20797;-67
2022/04/06 01:00:10;;;;;;;0.80;0.80;;;9.50;99.90;;;;;;5076195;28;20450;-67
2022/04/06 01:02:57;;;;;;;0.40;0.40;;;9.40;99.90;;;;;;5076408;28;20420;-67
2022/04/06 01:05:45;;;;;;;2.20;1.53;;;9.40;99.90;;;;;;5075905;28;20792;-67
2022/04/06 01:08:32;;;;;;;2.37;2.17;;;9.40;99.90;;;;;;5076481;28;20459;-67
2022/04/06 01:11:20;;;;;;;2.50;1.63;;;9.40;99.90;;;;;;5076218;28;20431;-68
2022/04/06 01:14:07;;;;;;;0.40;0.40;;;9.50;99.90;;;;;;5077205;28;20945;-67
2022/04/06 01:16:59;;;;;;;0.60;0.60;;;9.40;99.90;;;;;;5075913;28;20423;-67
2022/04/06 01:19:47;;;;;;;0.40;0.40;;;9.40;99.90;;;;;;5076761;28;20812;-67
2022/04/06 01:22:36;;;;;;;0.97;0.97;;;9.40;99.90;;;;;;5076158;28;20516;-67
2022/04/06 01:25:23;;;;;;;1.17;1.03;;;9.40;99.90;;;;;;5075610;28;20488;-67
2022/04/06 01:28:10;;;;;;;0.50;0.50;;;9.40;99.90;;;;;;5075723;28;20934;-67
2022/04/06 01:30:57;;;;;;;2.20;1.07;;;9.40;99.90;;;;;;5075544;28;20431;-68
2022/04/06 01:33:45;;;;;;;4.83;1.70;;;9.50;99.90;;;;;;5075334;28;20430;-69
2022/04/06 01:36:32;;;;;;;0.57;0.57;;;9.50;99.90;;;;;;5076523;28;20419;-68
2022/04/06 01:39:20;;;;;;;0.40;0.40;;;9.50;99.90;;;;;;5075691;28;20858;-68
2022/04/06 01:42:09;;;;;;;0.40;0.40;;;9.50;99.90;;;;;;5075375;28;20545;-68
2022/04/06 01:44:56;;;;;;;1.23;1.00;;;9.50;99.90;;;;;;5073327;28;20428;-68
2022/04/06 01:47:43;;;;;;;0.60;0.60;;;9.50;99.90;;;;;;5078325;28;20471;-68
2022/04/06 01:53:35;;;;;;;0.60;0.60;;;9.50;99.90;;;;;;5074893;28;20423;-68
2022/04/06 01:56:23;;;;;;;1.03;0.50;;;9.50;99.90;;;;;;5075453;28;20434;-68
2022/04/06 01:59:10;;;;;;;0.67;0.50;;;9.60;99.90;;;;;;5075807;28;20454;-68
2022/04/06 02:01:57;;;;;;;0.47;0.47;;;9.60;99.90;;;;;;5074558;28;20943;-68
2022/04/06 02:04:44;;;;;;;0.40;0.40;;;9.50;99.90;;;;;;5075236;28;20420;-67
2022/04/06 02:07:31;;;;;;;2.37;1.20;;;9.60;99.90;;;;;;5074919;28;20470;-67
2022/04/06 02:10:19;;;;;;;0.40;0.40;;;9.50;99.90;;;;;;5075419;28;20448;-67
2022/04/06 02:13:07;;;;;;;1.03;0.70;;;9.50;99.90;;;;;;5075057;28;20430;-68
2022/04/06 02:15:54;;;;;;;0.40;0.40;;;9.50;99.90;;;;;;5075805;28;20423;-68
2022/04/06 02:18:41;;;;;;;0.40;0.40;;;9.50;99.90;;;;;;5077202;28;20447;-68
2022/04/06 02:21:28;;;;;;;2.13;0.90;;;9.50;99.90;;;;;;5096136;28;20426;-68
2022/04/06 02:24:15;;;;;;;0.67;0.67;;;9.50;99.90;;;;;;5096876;28;20942;-68
2022/04/06 02:27:02;;;;;;;0.40;0.40;;;9.50;99.90;;;;;;5096514;28;20463;-68
2022/04/06 02:29:50;;;;;;;0.90;0.90;;;9.50;99.90;;;;;;5095793;28;20463;-68
2022/04/06 02:32:37;;;;;;;0.43;0.43;;;9.50;99.90;;;;;;5095887;28;20440;-68
2022/04/06 02:35:24;;;;;;;0.40;0.40;;;9.50;99.90;;;;;;5095215;28;20420;-68
2022/04/06 02:38:11;;;;;;;0.40;0.40;;;9.40;99.90;;;;;;5093944;28;20453;-68
2022/04/06 02:40:58;;;;;;;0.60;0.60;;;9.60;99.90;;;;;;5094459;28;20424;-69
2022/04/06 02:43:45;;;;;;;0.40;0.40;;;9.60;99.90;;;;;;5094145;28;20416;-69
2022/04/06 02:46:34;;;;;;;0.40;0.40;;;9.60;99.90;;;;;;5094867;28;20439;-68
2022/04/06 02:49:21;;;;;;;0.70;0.70;;;9.60;99.90;;;;;;5094561;28;20452;-68
2022/04/06 02:52:08;;;;;;;0.40;0.40;;;9.60;99.90;;;;;;5090972;28;20847;-68
2022/04/06 02:54:55;;;;;;;0.60;0.60;;;9.50;99.90;;;;;;5075492;28;20428;-68
2022/04/06 02:57:43;;;;;;;0.63;0.63;;;9.60;99.90;;;;;;5074924;28;20420;-68
2022/04/06 03:00:32;;;;;;;0.40;0.40;;;9.60;99.90;;;;;;5074776;28;20432;-68
2022/04/06 03:03:20;;;;;;;0.50;0.50;;;9.50;99.90;;;;;;5074534;28;20438;-68
2022/04/06 03:06:07;;;;;;;1.53;1.23;;;9.50;99.90;;;;;;5073764;28;20416;-68
2022/04/06 03:08:55;;;;;;;1.37;0.50;;;9.60;99.90;;;;;;5073091;28;20981;-68
2022/04/06 03:11:43;;;;;;;1.23;1.13;;;9.50;99.90;;;;;;5073715;28;20423;-68
2022/04/06 03:14:30;;;;;;;0.60;0.60;;;9.50;99.90;;;;;;5073300;28;20428;-67
2022/04/06 03:17:17;;;;;;;0.40;0.40;;;9.50;99.90;;;;;;5073712;28;20416;-68
2022/04/06 03:20:08;;;;;;;0.40;0.40;;;9.50;99.90;;;;;;5073825;28;20455;-67
2022/04/06 03:22:55;;;;;;;0.40;0.40;;;9.50;99.90;;;;;;5073648;28;20419;-68
2022/04/06 03:25:42;;;;;;;0.50;0.50;;;9.50;99.90;;;;;;5073568;28;20434;-68
2022/04/06 03:28:29;;;;;;;0.60;0.60;;;9.50;99.90;;;;;;5073246;28;20468;-67
2022/04/06 03:31:16;;;;;;;0.53;0.47;;;9.50;99.90;;;;;;5073305;28;20797;-67
2022/04/06 03:34:03;;;;;;;0.50;0.50;;;9.50;99.90;;;;;;5073603;28;20420;-67
2022/04/06 03:36:51;;;;;;;2.23;1.50;;;9.50;99.90;;;;;;5073329;28;20446;-67
2022/04/06 03:39:38;;;;;;;4.03;1.20;;;9.40;99.90;;;;;;5073553;28;20455;-68
2022/04/06 03:42:25;;;;;;;1.83;1.70;;;9.40;99.90;;;;;;5073257;28;20432;-68
2022/04/06 03:45:12;;;;;;;0.87;0.87;;;9.40;99.90;;;;;;5073287;28;20423;-69
2022/04/06 03:47:59;;;;;;;0.40;0.40;;;9.40;99.90;;;;;;5072879;28;20459;-68
2022/04/06 03:50:46;;;;;;;0.50;0.50;;;9.30;99.90;;;;;;5073544;28;20505;-69
2022/04/06 03:53:35;;;;;;;0.50;0.50;;;9.40;99.90;;;;;;5071960;28;20423;-68
2022/04/06 03:56:23;;;;;;;0.70;0.70;;;9.50;99.90;;;;;;5071801;28;20522;-68
2022/04/06 03:59:10;;;;;;;2.00;1.63;;;9.50;99.90;;;;;;5072655;28;20457;-68
2022/04/06 04:01:57;;;;;;;2.80;2.40;;;9.50;99.90;;;;;;5071943;28;20857;-68
2022/04/06 04:04:44;;;;;;;0.40;0.40;;;9.50;99.90;;;;;;5072545;28;20427;-68
2022/04/06 04:07:31;;;;;;;0.90;0.90;;;9.50;99.90;;;;;;5072519;28;20462;-69
2022/04/06 04:10:20;;;;;;;0.40;0.40;;;9.50;99.90;;;;;;5073328;28;20439;-68
2022/04/06 04:13:07;;;;;;;0.60;0.60;;;9.50;99.90;;;;;;5072560;28;20916;-69
2022/04/06 04:15:54;;;;;;;1.47;1.37;;;9.50;99.90;;;;;;5072605;28;20830;-68
2022/04/06 04:18:41;;;;;;;0.97;0.60;;;9.60;99.90;;;;;;5072239;28;20439;-68
2022/04/06 04:21:34;;;;;;;0.40;0.40;;;9.60;99.90;;;;;;5073047;28;20452;-69
2022/04/06 04:24:20;;;;;;;1.23;0.70;;;9.60;99.90;;;;;;5074204;28;20516;-69
2022/04/06 04:27:09;;;;;;;1.30;1.20;;;9.60;99.90;;;;;;5073124;28;20458;-68
2022/04/06 04:29:56;;;;;;;1.13;0.97;;;9.50;99.90;;;;;;5071703;28;20448;-68
2022/04/06 04:32:43;;;;;;;0.73;0.73;;;9.50;99.90;;;;;;5071593;28;20423;-68
2022/04/06 04:35:29;;;;;;;0.87;0.60;;;9.50;99.90;;;;;;5073289;28;20480;-68
2022/04/06 04:38:16;;;;;;;3.33;1.73;;;9.30;99.90;;;;;;5071919;28;20450;-68
2022/04/06 04:41:03;;;;;;;1.27;1.13;;;9.40;99.90;;;;;;5073710;28;20426;-68
2022/04/06 04:43:52;;;;;;;0.40;0.40;;;9.40;99.90;;;;;;5073975;28;20438;-68
2022/04/06 04:46:39;;;;;;;1.07;1.07;;;9.40;99.90;;;;;;5073830;28;20809;-68
2022/04/06 04:49:26;;;;;;;0.87;0.87;;;9.50;99.90;;;;;;5072417;28;20982;-68
2022/04/06 04:52:14;;;;;;;0.90;0.90;;;9.50;99.90;;;;;;5071272;28;20509;-68
2022/04/06 04:55:00;;;;;;;0.40;0.40;;;9.40;99.90;;;;;;5071335;28;20844;-68
2022/04/06 04:57:47;;;;;;;5.10;2.03;;;9.50;99.90;;;;;;5071467;28;20447;-68
2022/04/06 05:00:36;;;;;;;0.63;0.63;;;9.40;99.90;;;;;;5071362;28;20419;-68
2022/04/06 05:03:22;;;;;;;1.73;1.37;;;9.30;99.90;;;;;;5071052;28;20431;-68
2022/04/06 05:06:09;;;;;;;0.40;0.40;;;9.40;99.90;;;;;;5071459;28;20428;-68
2022/04/06 05:08:56;;;;;;;0.40;0.40;;;9.40;99.90;;;;;;5071159;28;20475;-69
2022/04/06 05:11:43;;;;;;;3.33;2.40;;;9.40;99.90;;;;;;5071422;28;20931;-68
2022/04/06 05:14:31;;;;;;;2.70;1.83;;;9.40;99.90;;;;;;5071702;28;20428;-68
2022/04/06 05:17:19;;;;;;;0.57;0.50;;;9.40;99.90;;;;;;5071494;28;20465;-68
2022/04/06 05:20:07;;;;;;;0.40;0.40;;;9.50;99.90;;;;;;5071595;28;20447;-68
2022/04/06 05:22:54;;;;;;;12.00;4.20;;;9.50;99.90;;;;;;5071618;28;20436;-68
2022/04/06 05:25:41;;;;;;;0.93;0.93;;;9.50;99.90;;;;;;5071097;28;20415;-68
2022/04/06 05:28:28;;;;;;;1.17;1.03;;;9.50;99.90;;;;;;5071398;28;20490;-68
2022/04/06 05:31:17;;;;;;;0.40;0.40;;;9.50;99.90;;;;;;5071039;28;20481;-69
2022/04/06 05:34:05;;;;;;;0.57;0.57;;;9.50;99.90;;;;;;5074735;28;20422;-68
2022/04/06 05:36:52;;;;;;;2.30;1.07;;;9.50;99.90;;;;;;5074861;28;20434;-67
2022/04/06 05:39:39;;;;;;;1.13;1.13;;;9.60;99.90;;;;;;5073417;28;20963;-68
2022/04/06 05:42:26;;;;;;;0.40;0.40;;;9.60;99.90;;;;;;5074005;28;20430;-68
2022/04/06 05:45:13;;;;;;;2.80;2.60;;;9.60;99.90;;;;;;5074674;28;20477;-68
2022/04/06 05:48:00;;;;;;;1.33;1.27;;;9.60;99.90;;;;;;5076042;28;20459;-68
2022/04/06 05:50:48;;;;;;;0.40;0.40;;;9.60;99.90;;;;;;5094128;28;20427;-68
2022/04/06 05:53:35;;;;;;;0.40;0.40;;;9.60;99.90;;;;;;5094089;28;20424;-68
2022/04/06 05:56:22;;;;;;;0.70;0.70;;;9.60;99.90;;;;;;5093487;28;20432;-69
2022/04/06 05:59:09;;;;;;;0.40;0.40;;;9.70;99.90;;;;;;5089484;28;20432;-68
2022/04/06 06:01:56;;;;;;;0.77;0.77;;;9.70;99.90;;;;;;5092791;28;20407;-68
2022/04/06 06:04:43;;;;;;;0.40;0.40;;;9.80;99.90;;;;;;5092935;28;20423;-69
2022/04/06 06:07:31;;;;;;;0.50;0.50;;;9.80;99.90;;;;;;5092623;28;20804;-68
2022/04/06 06:10:18;;;;;;;0.67;0.60;;;10.00;99.90;;;;;;5080471;28;20681;-68
2022/04/06 06:13:05;;;;;;;0.43;0.43;;;10.10;99.90;;;;;;5071268;28;20477;-68
2022/04/06 06:15:52;;;;;;;0.40;0.40;;;10.10;99.90;;;;;;5077853;28;20433;-69
2022/04/06 06:18:39;;;;;;;0.40;0.40;;;10.30;99.90;;;;;;5074562;28;20446;-69
2022/04/06 06:21:26;;;;;;;1.27;0.73;;;10.40;99.90;;;;;;5074623;28;20436;-68
2022/04/06 06:24:15;;;;;;;0.40;0.40;;;10.50;99.90;;;;;;5077392;28;20553;-68
2022/04/06 06:27:03;;;;;;;0.40;0.40;;;10.50;99.90;;;;;;5074661;28;20432;-68
2022/04/06 06:29:50;;;;;;;0.40;0.40;;;10.40;99.90;;;;;;5074334;28;20440;-68
2022/04/06 06:32:37;;;;;;;0.90;0.90;;;10.40;99.90;;;;;;5072025;28;20536;-68
2022/04/06 06:35:24;;;;;;;0.47;0.40;;;10.30;99.90;;;;;;5064335;28;20427;-68
2022/04/06 06:38:12;;;;;;;0.50;0.50;;;10.40;99.90;;;;;;5071911;28;20431;-68
2022/04/06 06:41:01;;;;;;;1.60;1.53;;;10.40;99.90;;;;;;5057715;28;20429;-68
2022/04/06 06:43:50;;;;;;;0.40;0.40;;;10.50;99.90;;;;;;5069516;28;21061;-68
2022/04/06 06:46:37;;;;;;;2.27;1.70;;;10.70;99.90;;;;;;5071817;28;20431;-68
2022/04/06 06:49:24;;;;;;;4.97;1.70;;;10.90;99.90;;;;;;5074813;28;20505;-67
2022/04/06 06:52:10;;;;;;;1.07;1.07;;;10.90;99.90;;;;;;5073912;28;20440;-67
2022/04/06 06:54:58;;;;;;;0.40;0.40;;;11.00;99.90;;;;;;5074985;28;20431;-67
2022/04/06 06:57:46;;;;;;;1.47;1.07;;;11.00;99.90;;;;;;5074448;28;20416;-68
2022/04/06 07:00:33;;;;;;;1.10;1.00;;;11.10;99.90;;;;;;5072611;28;20789;-68
2022/04/06 07:03:20;;;;;;;1.03;1.03;;;11.20;99.90;;;;;;5068265;28;20438;-68
2022/04/06 07:06:07;;;;;;;0.40;0.40;;;11.40;99.90;;;;;;5074763;28;20427;-68
2022/04/06 07:08:55;;;;;;;0.50;0.50;;;11.60;99.90;;;;;;5074445;28;20471;-67
2022/04/06 07:11:42;;;;;;;0.77;0.77;;;11.80;99.90;;;;;;5074577;28;20536;-68
2022/04/06 07:14:32;;;;;;;0.40;0.40;;;11.90;99.90;;;;;;5074575;28;20438;-68
2022/04/06 07:17:19;;;;;;;1.47;1.37;;;11.90;99.90;;;;;;5074730;28;20473;-68
2022/04/06 07:20:08;;;;;;;1.73;1.63;;;12.00;99.90;;;;;;5074194;28;20440;-67
2022/04/06 07:22:54;;;;;;;0.77;0.77;;;12.00;99.90;;;;;;5072419;28;20839;-69
2022/04/06 07:25:42;;;;;;;0.80;0.73;;;12.00;99.90;;;;;;5074311;28;20458;-68
2022/04/06 07:28:29;;;;;;;3.80;0.70;;;12.20;99.90;;;;;;5067797;28;20521;-69
2022/04/06 07:31:18;;;;;;;0.40;0.40;;;12.20;99.90;;;;;;5076646;28;20837;-68
2022/04/06 07:34:05;;;;;;;0.40;0.40;;;12.20;99.90;;;;;;5073512;28;20427;-68
2022/04/06 07:36:52;;;;;;;0.40;0.40;;;12.20;99.90;;;;;;5070043;28;20430;-68
2022/04/06 07:39:40;;;;;;;2.47;0.90;;;12.30;99.90;;;;;;5075360;28;20475;-69
2022/04/06 07:42:27;;;;;;;0.70;0.70;;;12.40;99.90;;;;;;5078470;28;20438;-68
2022/04/06 07:45:16;;;;;;;0.40;0.40;;;12.40;99.90;;;;;;5080846;28;20426;-67
2022/04/06 07:48:05;;;;;;;0.40;0.40;;;12.60;99.90;;;;;;5072878;28;20553;-68
2022/04/06 07:50:52;;;;;;;0.40;0.40;;;12.70;99.90;;;;;;5077007;28;20438;-68
2022/04/06 07:53:39;;;;;;;0.40;0.40;;;12.90;99.90;;;;;;5071770;28;20955;-68
2022/04/06 07:56:26;;;;;;;1.17;1.07;;;13.10;99.90;;;;;;5053214;28;20424;-69
2022/04/06 07:59:13;;;;;;;2.73;2.27;;;13.20;99.90;;;;;;5051441;28;20440;-68
2022/04/06 08:02:00;;;;;;;1.93;1.73;;;13.40;99.90;;;;;;5051253;28;20424;-68
2022/04/06 08:04:50;;;;;;;0.47;0.47;;;13.40;99.90;;;;;;5066090;28;20849;-68
2022/04/06 08:07:39;;;;;;;2.03;1.30;;;13.30;99.90;;;;;;5073718;28;20416;-68
2022/04/06 08:10:30;;;;;;;1.10;1.10;;;13.10;99.90;;;;;;5071700;28;20470;-68
2022/04/06 08:13:17;;;;;;;2.00;1.63;;;13.20;99.90;;;;;;5071684;28;20569;-67
2022/04/06 08:16:04;;;;;;;2.60;0.90;;;13.30;99.90;;;;;;5070191;28;20435;-68
2022/04/06 08:18:51;;;;;;;3.43;2.10;;;13.10;99.90;;;;;;5053731;28;20432;-68
2022/04/06 08:21:40;;;;;;;3.50;1.90;;;12.90;99.90;;;;;;5052070;28;20429;-67
2022/04/06 08:24:27;;;;;;;4.23;2.90;;;12.80;99.90;;;;;;5052892;28;20517;-68
2022/04/06 08:27:15;;;;;;;0.53;0.50;;;12.60;99.90;;;;;;5052137;28;20432;-68
2022/04/06 08:30:02;;;;;;;0.50;0.50;;;12.50;99.90;;;;;;5069586;28;20490;-67
2022/04/06 08:32:49;;;;;;;3.93;2.40;;;12.60;99.90;;;;;;5051642;28;21104;-67
2022/04/06 08:35:35;;;;;;;0.40;0.40;;;12.70;99.90;;;;;;5051829;28;20949;-68
2022/04/06 08:38:24;;;;;;;2.87;2.20;;;12.70;99.90;;;;;;5069651;28;20442;-68
2022/04/06 08:41:11;;;;;;;1.17;0.97;;;12.60;99.90;;;;;;5071310;28;20430;-68
2022/04/06 08:43:58;;;;;;;0.93;0.53;;;12.70;99.90;;;;;;5067900;28;20444;-67
2022/04/06 08:46:46;;;;;;;8.33;2.10;;;12.80;99.90;;;;;;5051833;28;21250;-68
2022/04/06 08:49:36;;;;;;;0.70;0.70;;;13.00;99.90;;;;;;5059676;28;20485;-68
2022/04/06 08:52:23;;;;;;;0.40;0.40;;;13.30;99.90;;;;;;5070742;28;21034;-68
2022/04/06 08:55:12;;;;;;;2.03;1.93;;;13.60;99.90;;;;;;5072727;28;20424;-68
2022/04/06 08:58:01;;;;;;;1.50;0.90;;;14.00;99.90;;;;;;5070434;28;20420;-68
2022/04/06 09:00:48;;;;;;;2.83;1.30;;;14.30;99.90;;;;;;5068996;28;20439;-68
2022/04/06 09:03:35;;;;;;;0.90;0.50;;;14.30;99.90;;;;;;5073867;28;20434;-69
2022/04/06 09:06:22;;;;;;;11.20;3.00;;;14.10;99.90;;;;;;5055221;28;20424;-68
2022/04/06 09:09:10;;;;;;;0.70;0.70;;;14.00;99.90;;;;;;5055148;28;20472;-68
2022/04/06 09:11:58;;;;;;;0.40;0.40;;;13.90;99.90;;;;;;5068953;28;20424;-68
2022/04/06 09:14:45;;;;;;;0.40;0.40;;;14.10;99.90;;;;;;5071597;28;20426;-68
2022/04/06 09:17:43;;;;;;;0.50;0.50;;;14.40;99.90;;;;;;5075416;28;20946;-68
2022/04/06 09:20:31;;;;;;;1.90;1.43;;;14.60;99.90;;;;;;5075011;28;20710;-68
2022/04/06 09:23:22;;;;;;;1.07;0.97;;;14.90;99.90;;;;;;5075364;28;20552;-68
2022/04/06 09:26:11;;;;;;;1.93;1.70;;;14.90;99.90;;;;;;5072465;28;20426;-68
2022/04/06 09:28:59;;;;;;;1.53;1.50;;;15.00;99.90;;;;;;5074040;28;20960;-68
2022/04/06 09:31:48;;;;;;;4.07;2.43;;;14.80;99.90;;;;;;5067885;28;20423;-67
2022/04/06 09:34:35;;;;;;;0.90;0.90;;;14.60;99.90;;;;;;5074643;28;20450;-68
2022/04/06 09:37:23;;;;;;;2.10;0.67;;;14.40;99.90;;;;;;5075836;28;20920;-67
2022/04/06 09:40:11;;;;;;;1.00;0.90;;;14.30;99.90;;;;;;5070629;28;20458;-68
2022/04/06 09:42:58;;;;;;;3.97;2.27;;;14.20;99.90;;;;;;5074118;28;20425;-68
2022/04/06 09:48:55;;;;;;;0.40;0.40;;;14.10;99.90;;;;;;5074399;28;20462;-68
2022/04/06 09:51:44;;;;;;;0.77;0.70;;;14.10;99.90;;;;;;5074540;28;20431;-68
2022/04/06 09:54:35;;;;;;;0.60;0.60;;;14.30;99.90;;;;;;5076369;28;20778;-67
2022/04/06 09:57:22;;;;;;;0.40;0.40;;;14.40;99.90;;;;;;5076423;28;20431;-68
2022/04/06 10:00:11;;;;;;;2.93;1.60;;;14.50;99.90;;;;;;5074454;28;20451;-68
2022/04/06 10:03:04;;;;;;;0.60;0.60;;;14.10;99.90;;;;;;5074439;28;20420;-68
2022/04/06 10:05:52;;;;;;;0.40;0.40;;;13.80;99.90;;;;;;5074862;28;20455;-68
2022/04/06 10:08:39;;;;;;;0.87;0.87;;;17.80;99.90;;;;;;5091729;28;20819;-68
2022/04/06 10:11:26;;;;;;;0.40;0.40;;;13.50;99.90;;;;;;5095283;28;21199;-68
2022/04/06 10:14:13;;;;;;;3.90;3.23;;;13.20;99.90;;;;;;5095456;28;20496;-68
2022/04/06 10:17:02;;;;;;;1.90;1.43;;;13.50;99.90;;;;;;5076567;28;20431;-67
2022/04/06 10:19:56;;;;;;;1.03;0.70;;;13.50;99.90;;;;;;5067855;28;20444;-68
2022/04/06 10:22:54;;;;;;;0.50;0.50;;;13.90;99.90;;;;;;5074724;28;20420;-68
2022/04/06 10:25:51;;;;;;;6.90;1.70;;;14.20;99.90;;;;;;5074371;28;20813;-68
2022/04/06 10:28:44;;;;;;;0.90;0.90;;;14.50;99.90;;;;;;5069594;28;20841;-69
2022/04/06 10:31:31;;;;;;;1.30;0.60;;;14.60;99.90;;;;;;5073621;28;20428;-68
2022/04/06 10:34:21;;;;;;;1.70;0.80;;;14.80;99.90;;;;;;5073304;28;20428;-69
2022/04/06 10:37:11;;;;;;;1.00;0.90;;;15.00;99.90;;;;;;5074659;28;20420;-69
2022/04/06 10:40:00;;;;;;;0.40;0.40;;;15.20;99.90;;;;;;5073590;28;20525;-69
2022/04/06 10:42:47;;;;;;;0.90;0.83;;;15.30;99.90;;;;;;5076124;28;20420;-69
2022/04/06 10:45:35;;;;;;;3.70;1.63;;;15.30;99.90;;;;;;5071528;28;20431;-68
2022/04/06 10:48:23;;;;;;;1.23;1.10;;;14.90;99.90;;;;;;5070545;28;20440;-69
2022/04/06 10:51:28;;;;;;;1.37;0.70;;;14.70;99.90;;;;;;5071764;28;20420;-68
2022/04/06 10:54:41;;;;;;;3.57;1.70;;;14.40;99.90;;;;;;5070779;28;20500;-68
2022/04/06 10:57:58;;;;;;;0.63;0.50;;;14.40;99.90;;;;;;5061400;28;20452;-68
2022/04/06 11:01:15;;;;;;;2.47;1.40;;;14.20;99.90;;;;;;5072572;28;20404;-68
2022/04/06 11:04:04;;;;;;;0.73;0.73;;;14.00;99.90;;;;;;5069048;28;20895;-68
2022/04/06 11:06:56;;;;;;;0.50;0.50;;;13.70;99.90;;;;;;5072475;28;20427;-68
2022/04/06 11:13:03;;;;;;;0.70;0.67;;;13.30;99.90;;;;;;5073013;28;20514;-68
2022/04/06 11:15:52;;;;;;;0.40;0.40;;;13.30;99.90;;;;;;5071146;28;20424;-67
2022/04/06 11:18:47;;;;;;;0.40;0.40;;;13.10;99.90;;;;;;5054386;28;20456;-67
2022/04/06 11:21:34;;;;;;;0.97;0.83;;;13.10;99.90;;;;;;5054986;28;20929;-68
2022/04/06 11:24:23;;;;;;;0.90;0.90;;;13.00;99.90;;;;;;5052582;28;20994;-68
2022/04/06 11:27:26;;;;;;;1.23;1.13;;;13.00;99.90;;;;;;5053321;28;20436;-68
2022/04/06 11:30:15;;;;;;;2.03;0.90;;;12.80;99.90;;;;;;5052879;28;20537;-68
2022/04/06 11:33:04;;;;;;;0.80;0.63;;;12.70;99.90;;;;;;5054494;28;20421;-67
2022/04/06 11:35:51;;;;;;;0.40;0.40;;;12.80;99.90;;;;;;5073443;28;20430;-68
2022/04/06 11:38:38;;;;;;;1.27;0.93;;;12.60;99.90;;;;;;5070956;28;20495;-68
2022/04/06 11:41:25;;;;;;;0.50;0.50;;;12.60;99.90;;;;;;5071378;28;20470;-68
2022/04/06 11:44:20;;;;;;;0.73;0.70;;;12.60;99.90;;;;;;5072390;28;20435;-68
2022/04/06 11:47:07;;;;;;;1.57;1.07;;;12.60;99.90;;;;;;5070762;28;20428;-68
2022/04/06 11:49:54;;;;;;;2.90;1.20;;;12.70;99.90;;;;;;5072122;28;20467;-68
2022/04/06 11:52:42;;;;;;;4.80;2.07;;;12.60;99.90;;;;;;5072218;28;20451;-68
2022/04/06 11:55:44;;;;;;;0.40;0.40;;;12.60;99.90;;;;;;5071239;28;20459;-68
2022/04/06 11:58:32;;;;;;;0.50;0.50;;;12.60;99.90;;;;;;5072891;28;20446;-69
2022/04/06 12:01:28;;;;;;;0.60;0.40;;;12.70;99.90;;;;;;5070619;28;20502;-68
2022/04/06 12:04:18;;;;;;;2.10;1.37;;;12.60;99.90;;;;;;5071339;28;20522;-69
2022/04/06 12:07:17;;;;;;;0.40;0.40;;;12.70;99.90;;;;;;5071614;28;20515;-68
2022/04/06 12:10:06;;;;;;;0.60;0.60;;;12.80;99.90;;;;;;5051213;28;20464;-68
2022/04/06 12:12:53;;;;;;;2.10;1.97;;;12.70;99.90;;;;;;5058570;28;20423;-68
2022/04/06 12:15:41;;;;;;;0.40;0.40;;;12.70;99.90;;;;;;5056413;28;20448;-68
2022/04/06 12:18:31;;;;;;;1.13;0.73;;;12.70;99.90;;;;;;5058547;28;20443;-68
2022/04/06 12:21:22;;;;;;;6.67;1.87;;;12.70;99.90;;;;;;5065755;28;20432;-68
2022/04/06 12:24:11;;;;;;;1.03;0.80;;;12.60;99.90;;;;;;5067198;28;20420;-68
2022/04/06 12:26:58;;;;;;;1.90;0.97;;;12.60;99.90;;;;;;5072885;28;20570;-68
2022/04/06 12:30:06;;;;;;;6.53;2.63;;;12.70;99.90;;;;;;5068177;28;20459;-68
2022/04/06 12:32:53;;;;;;;3.20;2.47;;;12.90;99.90;;;;;;5060171;28;20447;-68
2022/04/06 12:35:42;;;;;;;3.83;2.23;;;13.30;99.90;;;;;;5063267;28;20458;-67
2022/04/06 12:38:29;;;;;;;1.27;1.10;;;13.70;99.90;;;;;;5071688;28;20474;-68
2022/04/06 12:41:16;;;;;;;0.40;0.40;;;14.00;99.90;;;;;;5074223;28;20419;-68
2022/04/06 12:44:14;;;;;;;0.50;0.40;;;14.60;99.90;;;;;;5076855;28;20423;-68
2022/04/06 12:47:02;;;;;;;0.50;0.50;;;15.30;99.90;;;;;;5077296;28;20424;-69
2022/04/06 12:49:49;;;;;;;1.53;1.03;;;15.40;99.90;;;;;;5075989;28;20487;-68
2022/04/06 12:52:38;;;;;;;1.00;1.00;;;15.00;99.90;;;;;;5073978;28;20438;-68
2022/04/06 12:55:25;;;;;;;0.40;0.40;;;14.70;99.90;;;;;;5075837;28;20947;-68
2022/04/06 12:58:16;;;;;;;0.50;0.50;;;14.50;99.90;;;;;;5075757;28;20419;-68
2022/04/06 13:01:03;;;;;;;2.73;2.17;;;14.20;99.90;;;;;;5070523;28;20959;-68
2022/04/06 13:03:57;;;;;;;1.43;1.13;;;13.80;99.90;;;;;;5074572;28;20424;-69
2022/04/06 13:06:44;;;;;;;0.40;0.40;;;13.40;99.90;;;;;;5075589;28;20412;-68
2022/04/06 13:09:32;;;;;;;0.80;0.67;;;13.40;99.90;;;;;;5074132;28;20446;-68
2022/04/06 13:12:21;;;;;;;6.10;1.90;;;13.50;99.90;;;;;;5072105;28;20442;-68
2022/04/06 13:15:09;;;;;;;0.40;0.40;;;13.70;99.90;;;;;;5076172;28;20518;-68
2022/04/06 13:17:56;;;;;;;0.90;0.90;;;14.00;99.90;;;;;;5071511;28;20423;-68
2022/04/06 13:20:43;;;;;;;0.80;0.80;;;14.10;99.90;;;;;;5076818;28;20424;-68
2022/04/06 13:23:29;;;;;;;14.23;1.33;;;14.20;99.90;;;;;;5075430;28;20432;-68
2022/04/06 13:26:18;;;;;;;0.40;0.40;;;14.30;99.90;;;;;;5074265;28;21070;-67
2022/04/06 13:29:05;;;;;;;1.20;1.10;;;14.10;99.90;;;;;;5074329;28;20450;-67
2022/04/06 13:31:52;;;;;;;1.33;1.17;;;14.00;99.90;;;;;;5073531;28;20955;-67
2022/04/06 13:34:39;;;;;;;1.50;1.40;;;13.80;99.90;;;;;;5074948;28;20424;-68
2022/04/06 13:37:25;;;;;;;0.70;0.70;;;13.60;99.90;;;;;;5071858;28;20435;-67
2022/04/06 13:40:14;;;;;;;0.60;0.60;;;13.60;99.90;;;;;;5074544;28;20459;-67
2022/04/06 13:43:02;;;;;;;0.50;0.50;;;13.50;99.90;;;;;;5075558;28;20420;-67
2022/04/06 13:45:49;;;;;;;1.47;1.37;;;13.40;99.90;;;;;;5074129;28;20469;-67
2022/04/06 13:48:36;;;;;;;1.90;1.37;;;13.40;99.90;;;;;;5075175;28;20531;-68
2022/04/06 13:51:23;;;;;;;2.70;2.50;;;13.40;99.90;;;;;;5074925;28;20467;-68
2022/04/06 13:54:10;;;;;;;0.40;0.40;;;13.50;99.90;;;;;;5074543;28;20439;-67
2022/04/06 13:56:57;;;;;;;1.13;0.97;;;13.60;99.90;;;;;;5074110;28;20450;-68
2022/04/06 13:59:45;;;;;;;0.60;0.60;;;13.70;99.90;;;;;;5070346;28;20443;-67
2022/04/06 14:02:32;;;;;;;0.40;0.40;;;14.20;99.90;;;;;;5075275;28;20427;-67
2022/04/06 14:05:20;;;;;;;2.00;1.13;;;13.90;99.90;;;;;;5073876;28;20432;-68
2022/04/06 14:08:10;;;;;;;1.03;0.77;;;13.90;99.90;;;;;;5073339;28;20530;-67
2022/04/06 14:10:56;;;;;;;0.50;0.50;;;13.80;99.90;;;;;;5064129;28;20471;-67
2022/04/06 14:13:43;;;;;;;0.63;0.63;;;13.60;99.90;;;;;;5074486;28;20427;-67
2022/04/06 14:16:32;;;;;;;1.57;1.47;;;13.50;99.90;;;;;;5073942;28;20456;-67
2022/04/06 14:19:19;;;;;;;0.40;0.40;;;13.40;99.90;;;;;;5072439;28;20975;-68
2022/04/06 14:22:07;;;;;;;0.50;0.50;;;13.40;99.90;;;;;;5073203;28;20776;-67
2022/04/06 14:27:58;;;;;;;1.13;0.50;;;13.60;99.90;;;;;;5074232;28;20419;-68
2022/04/06 14:30:49;;;;;;;0.40;0.40;;;13.50;99.90;;;;;;5075336;28;20471;-68
2022/04/06 14:33:38;;;;;;;0.63;0.60;;;13.60;99.90;;;;;;5074911;28;20435;-68
2022/04/06 14:36:25;;;;;;;2.07;0.80;;;13.70;99.90;;;;;;5070626;28;20452;-68
2022/04/06 14:39:12;;;;;;;0.40;0.40;;;13.70;99.90;;;;;;5068965;28;20525;-67
2022/04/06 14:41:59;;;;;;;0.40;0.40;;;13.70;99.90;;;;;;5074590;28;20431;-67
2022/04/06 14:44:46;;;;;;;1.43;1.33;;;13.90;99.90;;;;;;5075745;28;20431;-69
2022/04/06 14:47:33;;;;;;;0.43;0.40;;;14.00;99.90;;;;;;5075213;28;20415;-68
2022/04/06 14:50:22;;;;;;;0.40;0.40;;;14.00;99.90;;;;;;5072441;28;20456;-68
2022/04/06 14:53:11;;;;;;;0.77;0.50;;;13.90;99.90;;;;;;5073486;28;20455;-68
2022/04/06 14:55:58;;;;;;;0.40;0.40;;;13.80;99.90;;;;;;5072261;28;20436;-68